CYVM/YVM METAR and TAF weather

Enter ICAO airport designator
Station Type Date Time Source
CYVM METAR 2022/05/25 00:00 UTC NOAA

CYVM 250000Z AUTO VRB03KT 9SM CLR M09/M13 A2969 RMK SLP055


Station Type Date Time Source
CYVM Decoded METAR 2022/05/25 00:00 UTC NOAA

Broughton Island Airport, Canada (CYVM) 67-33N 064-02W
May 24, 2022 - 08:00 PM EDT / 2022.05.25 0000 UTC
Wind: Variable at 3 MPH (3 KT):0
Visibility: 9 mile(s):0
Sky conditions: clear
Temperature: 15 F (-9 C)
Dew Point: 8 F (-13 C)
Relative Humidity: 72%
Pressure (altimeter): 29.69 in. Hg (1005 hPa)
ob: CYVM 250000Z AUTO VRB03KT 9SM CLR M09/M13 A2969 RMK SLP055
cycle: 0

Station Type Date Time Source
CYVM TAF 2022/05/25 01:42 UTC NOAA

TAF CYVM 250040Z 2501/2513 VRB03KT P6SM SCT080 BKN210
FM250500 18008KT P6SM SCT030 BKN080
TEMPO 2505/2509 5SM -SN BKN030
FM250900 02008KT P6SM -SN SCT008 BKN020 OVC060
TEMPO 2509/2513 2SM -SHSN BKN008 OVC020
RMK FCST BASED ON AUTO OBS. NXT FCST BY 250700Z

Example: see airport list